createdAt,value
2023-05-05T00:00:49.362Z,76.13
2023-05-05T00:01:53.064Z,76.81
2023-05-05T00:02:56.912Z,76.06
2023-05-05T00:04:00.568Z,75.90
2023-05-05T00:05:04.936Z,76.05
2023-05-05T00:06:08.593Z,75.85
2023-05-05T00:07:12.028Z,76.60
2023-05-05T00:08:15.692Z,77.41
2023-05-05T00:09:19.739Z,77.06
2023-05-05T00:10:23.514Z,76.48
2023-05-05T00:11:27.306Z,75.96
2023-05-05T00:12:31.153Z,75.98
2023-05-05T00:13:34.157Z,75.97
2023-05-05T00:14:37.531Z,75.94
2023-05-05T00:15:43.179Z,77.14
2023-05-05T00:16:46.594Z,76.84
2023-05-05T00:17:50.377Z,76.96
2023-05-05T00:18:54.467Z,76.67
2023-05-05T00:19:57.849Z,76.86
2023-05-05T00:21:00.988Z,76.46
2023-05-05T00:22:04.434Z,76.18
2023-05-05T00:23:07.972Z,75.90
2023-05-05T00:24:12.439Z,76.05
2023-05-05T00:25:15.994Z,76.04
2023-05-05T00:26:19.219Z,76.75
2023-05-05T00:27:26.877Z,76.13
2023-05-05T00:28:30.704Z,76.10
2023-05-05T00:29:34.685Z,76.47
2023-05-05T00:30:38.653Z,76.59
2023-05-05T00:31:42.173Z,76.16
2023-05-05T00:32:48.677Z,76.95
2023-05-05T00:33:52.297Z,76.41
2023-05-05T00:34:56.713Z,76.83
2023-05-05T00:36:00.466Z,75.93
2023-05-05T00:37:04.636Z,76.35
2023-05-05T00:38:08.667Z,76.68
2023-05-05T00:39:11.863Z,77.17
2023-05-05T00:40:16.841Z,77.90
2023-05-05T00:41:21.271Z,77.31
2023-05-05T00:42:24.974Z,77.53
2023-05-05T00:43:28.931Z,77.09
2023-05-05T00:44:42.366Z,76.90
2023-05-05T00:45:48.878Z,76.85
2023-05-05T00:46:52.813Z,77.15
2023-05-05T00:47:57.546Z,76.80
2023-05-05T00:49:01.371Z,76.71
2023-05-05T00:50:07.093Z,76.78
2023-05-05T00:51:10.931Z,77.48
2023-05-05T00:52:13.912Z,77.50
2023-05-05T00:53:17.696Z,77.63
2023-05-05T00:54:21.260Z,77.89
2023-05-05T00:55:25.217Z,77.82
2023-05-05T00:56:28.441Z,77.46
2023-05-05T00:57:32.839Z,77.21
2023-05-05T00:58:37.022Z,77.83
2023-05-05T00:59:40.503Z,77.62
2023-05-05T01:00:43.736Z,77.61
2023-05-05T01:01:47.512Z,77.30
2023-05-05T01:02:51.714Z,77.34
2023-05-05T01:03:56.003Z,77.49
2023-05-05T01:04:59.106Z,77.09
2023-05-05T01:06:18.752Z,76.75
2023-05-05T01:07:27.225Z,76.90
2023-05-05T01:08:37.670Z,77.22
2023-05-05T01:10:18.813Z,77.68
2023-05-05T01:11:27.944Z,77.89
2023-05-05T01:12:52.329Z,78.04
2023-05-05T01:14:24.804Z,78.07
2023-05-05T01:15:57.372Z,77.56
2023-05-05T01:17:11.055Z,77.22
2023-05-05T01:18:47.938Z,77.46
2023-05-05T01:19:59.698Z,77.36
2023-05-05T01:21:28.068Z,77.50
2023-05-05T01:22:39.810Z,77.79
2023-05-05T01:24:15.057Z,78.11
2023-05-05T01:25:43.023Z,78.57
2023-05-05T01:27:05.601Z,78.58
2023-05-05T01:28:25.518Z,78.88
2023-05-05T01:29:31.615Z,79.09
2023-05-05T01:31:10.699Z,78.87
2023-05-05T01:32:16.530Z,78.60
2023-05-05T01:33:23.861Z,78.26
2023-05-05T01:34:29.224Z,78.05
2023-05-05T01:35:42.921Z,78.26
2023-05-05T01:36:47.444Z,77.93
2023-05-05T01:38:10.190Z,77.72
2023-05-05T01:39:16.716Z,78.04
2023-05-05T01:40:26.937Z,78.11
2023-05-05T01:41:50.554Z,78.04
2023-05-05T01:42:54.551Z,77.71
2023-05-05T01:43:58.090Z,78.06
2023-05-05T01:45:01.407Z,77.93
2023-05-05T01:46:04.976Z,78.26
2023-05-05T01:47:08.669Z,78.04
2023-05-05T01:48:13.459Z,78.26
2023-05-05T01:49:18.585Z,78.28
2023-05-05T01:50:22.017Z,78.63
2023-05-05T01:51:25.290Z,78.73
2023-05-05T01:52:28.408Z,78.92
2023-05-05T01:53:32.238Z,79.09
2023-05-05T01:54:36.222Z,78.86
2023-05-05T01:55:40.059Z,78.48
2023-05-05T01:56:43.292Z,78.71
2023-05-05T01:57:46.834Z,78.25
2023-05-05T01:58:50.135Z,78.53
2023-05-05T01:59:53.088Z,78.71
2023-05-05T02:00:56.351Z,78.92
2023-05-05T02:02:00.626Z,79.46
2023-05-05T02:03:07.178Z,78.80
2023-05-05T02:04:10.354Z,78.85
2023-05-05T02:05:13.787Z,79.14
2023-05-05T02:06:18.014Z,79.43
2023-05-05T02:07:21.782Z,78.72
2023-05-05T02:08:25.268Z,78.58
2023-05-05T02:09:29.189Z,78.93
2023-05-05T02:10:33.027Z,79.06
2023-05-05T02:11:36.551Z,79.07
2023-05-05T02:12:40.862Z,78.62
2023-05-05T02:13:44.828Z,78.88
2023-05-05T02:14:52.003Z,79.10
2023-05-05T02:15:55.967Z,78.47
2023-05-05T02:17:00.008Z,78.16
2023-05-05T02:18:03.830Z,78.08
2023-05-05T02:19:06.629Z,78.33
2023-05-05T02:20:14.260Z,78.51
2023-05-05T02:21:18.643Z,78.64
2023-05-05T02:22:22.430Z,78.41
2023-05-05T02:23:26.340Z,78.02
2023-05-05T02:24:30.527Z,78.01
2023-05-05T02:25:38.301Z,78.21
2023-05-05T02:26:42.295Z,78.38
2023-05-05T02:27:47.422Z,78.53
2023-05-05T02:28:58.116Z,78.29
2023-05-05T02:30:02.812Z,77.76
2023-05-05T02:31:06.801Z,78.29
2023-05-05T02:32:18.473Z,78.16
2023-05-05T02:33:22.462Z,78.51
2023-05-05T02:34:27.860Z,78.52
2023-05-05T02:35:35.680Z,77.88
2023-05-05T02:36:41.415Z,78.91
2023-05-05T02:37:47.474Z,78.68
2023-05-05T02:38:56.330Z,78.49
2023-05-05T02:40:03.853Z,78.56
2023-05-05T02:41:12.013Z,78.54
2023-05-05T02:42:17.945Z,78.26
2023-05-05T02:43:23.250Z,78.67
2023-05-05T02:44:28.082Z,78.91
2023-05-05T02:45:32.204Z,78.75
2023-05-05T02:46:38.667Z,77.73
2023-05-05T02:47:41.932Z,77.67
2023-05-05T02:48:45.827Z,77.72
2023-05-05T02:49:49.060Z,77.82
2023-05-05T02:50:52.284Z,78.05
2023-05-05T02:52:02.670Z,78.49
2023-05-05T02:53:10.826Z,77.97
2023-05-05T02:54:14.676Z,78.34
2023-05-05T02:55:18.282Z,78.00
2023-05-05T02:56:52.398Z,78.19
2023-05-05T02:58:09.687Z,77.89
2023-05-05T02:59:23.249Z,78.12
2023-05-05T03:00:54.676Z,78.21
2023-05-05T03:02:11.832Z,77.70
2023-05-05T03:03:37.739Z,77.75
2023-05-05T03:04:55.522Z,77.99
2023-05-05T03:06:22.337Z,77.69
2023-05-05T03:07:31.577Z,77.96
2023-05-05T03:08:55.733Z,77.59
2023-05-05T03:10:11.313Z,77.65
2023-05-05T03:11:30.450Z,77.58
2023-05-05T03:12:54.118Z,77.44
2023-05-05T03:14:22.050Z,77.00
2023-05-05T03:15:31.699Z,76.91
2023-05-05T03:16:37.661Z,77.00
2023-05-05T03:17:42.259Z,76.85
2023-05-05T03:18:46.157Z,77.00
2023-05-05T03:19:49.583Z,76.96
2023-05-05T03:20:53.705Z,76.63
2023-05-05T03:21:58.143Z,76.49
2023-05-05T03:23:04.682Z,76.45
2023-05-05T03:24:19.335Z,76.57
2023-05-05T03:25:46.462Z,76.45
2023-05-05T03:27:09.825Z,76.65
2023-05-05T03:28:16.484Z,76.43
2023-05-05T03:29:20.150Z,76.69
2023-05-05T03:30:23.966Z,76.70
2023-05-05T03:31:29.311Z,76.20
2023-05-05T03:32:35.342Z,76.39
2023-05-05T03:33:38.697Z,76.62
2023-05-05T03:34:42.081Z,76.69
2023-05-05T03:35:45.600Z,76.59
2023-05-05T03:36:50.245Z,76.65
2023-05-05T03:37:53.978Z,76.38
2023-05-05T03:38:57.030Z,76.64
2023-05-05T03:40:02.308Z,76.75
2023-05-05T03:41:07.045Z,76.39
2023-05-05T03:42:10.114Z,76.04
2023-05-05T03:43:13.780Z,76.16
2023-05-05T03:44:17.616Z,76.35
2023-05-05T03:45:21.404Z,75.91
2023-05-05T03:46:24.754Z,75.76
2023-05-05T03:47:28.613Z,75.85
2023-05-05T03:48:34.829Z,76.79
2023-05-05T03:49:39.275Z,77.20
2023-05-05T03:50:43.341Z,76.65
2023-05-05T03:51:48.440Z,76.41
2023-05-05T03:52:52.033Z,76.43
2023-05-05T03:53:55.592Z,76.40
2023-05-05T03:55:01.001Z,76.52
2023-05-05T03:56:05.129Z,76.81
2023-05-05T03:57:08.954Z,77.18
2023-05-05T03:58:12.999Z,77.52
2023-05-05T03:59:16.437Z,77.56
2023-05-05T04:00:20.154Z,77.14
2023-05-05T04:01:24.431Z,77.06
2023-05-05T04:02:28.497Z,76.97
2023-05-05T04:03:32.551Z,77.10
2023-05-05T04:04:36.465Z,77.44
2023-05-05T04:05:40.141Z,77.23
2023-05-05T04:06:43.606Z,77.13
2023-05-05T04:07:47.180Z,77.73
2023-05-05T04:08:51.505Z,77.25
2023-05-05T04:09:54.525Z,77.10
2023-05-05T04:10:58.203Z,76.97
2023-05-05T04:12:02.546Z,76.95
2023-05-05T04:13:06.046Z,78.01
2023-05-05T04:14:09.285Z,77.42
2023-05-05T04:15:13.554Z,76.93
2023-05-05T04:16:17.375Z,77.09
2023-05-05T04:17:21.096Z,77.08
2023-05-05T04:18:25.223Z,77.36
2023-05-05T04:19:28.632Z,77.14
2023-05-05T04:20:31.774Z,77.17
2023-05-05T04:21:35.764Z,77.01
2023-05-05T04:22:39.798Z,77.09
2023-05-05T04:23:43.883Z,77.04
2023-05-05T04:24:48.147Z,77.05
2023-05-05T04:25:51.762Z,77.18
2023-05-05T04:26:55.997Z,77.33
2023-05-05T04:27:59.337Z,77.57
2023-05-05T04:29:02.737Z,77.44
2023-05-05T04:30:06.517Z,77.64
2023-05-05T04:31:11.534Z,77.75
2023-05-05T04:32:18.507Z,78.07
2023-05-05T04:33:22.008Z,77.84
2023-05-05T04:34:26.348Z,78.34
2023-05-05T04:35:29.754Z,78.47
2023-05-05T04:36:33.569Z,78.99
2023-05-05T04:37:36.969Z,78.38
2023-05-05T04:38:40.181Z,79.09
2023-05-05T04:39:43.770Z,80.28
2023-05-05T04:40:47.275Z,80.38
2023-05-05T04:41:50.695Z,78.89
2023-05-05T04:42:54.179Z,79.50
2023-05-05T04:43:57.454Z,79.34
2023-05-05T04:45:01.332Z,79.49
2023-05-05T04:46:06.668Z,79.82
2023-05-05T04:47:14.493Z,79.96
2023-05-05T04:48:21.636Z,80.01
2023-05-05T04:49:25.188Z,80.07
2023-05-05T04:50:28.228Z,79.82
2023-05-05T04:51:32.866Z,79.45
2023-05-05T04:52:36.324Z,79.38
2023-05-05T04:53:40.079Z,79.07
2023-05-05T04:54:43.706Z,79.17
2023-05-05T04:55:47.159Z,79.72
2023-05-05T04:56:50.043Z,78.76
2023-05-05T04:57:53.767Z,78.57
2023-05-05T04:58:57.584Z,79.02
2023-05-05T05:00:02.497Z,78.51
2023-05-05T05:01:06.547Z,78.69
2023-05-05T05:02:10.092Z,78.61
2023-05-05T05:03:13.272Z,78.83
2023-05-05T05:04:19.404Z,78.41
2023-05-05T05:05:23.262Z,78.58
2023-05-05T05:06:26.366Z,78.80
2023-05-05T05:07:30.390Z,78.47
2023-05-05T05:08:34.111Z,78.42
2023-05-05T05:09:37.420Z,78.54
2023-05-05T05:10:40.862Z,79.03
2023-05-05T05:11:44.395Z,79.11
2023-05-05T05:12:49.173Z,79.33
2023-05-05T05:13:52.293Z,78.92
2023-05-05T05:14:55.897Z,78.87
2023-05-05T05:15:59.436Z,78.56
2023-05-05T05:17:02.882Z,78.60
2023-05-05T05:18:06.082Z,78.56
2023-05-05T05:19:09.604Z,78.60
2023-05-05T05:20:12.978Z,79.09
2023-05-05T05:21:16.381Z,78.02
2023-05-05T05:22:20.621Z,78.50
2023-05-05T05:23:24.380Z,79.02
2023-05-05T05:24:28.048Z,79.04
2023-05-05T05:25:31.758Z,79.12
2023-05-05T05:26:34.832Z,79.18
2023-05-05T05:27:38.994Z,79.31
2023-05-05T05:28:43.118Z,78.79
2023-05-05T05:29:46.308Z,78.87
2023-05-05T05:30:49.889Z,79.05
2023-05-05T05:31:53.222Z,78.72
2023-05-05T05:32:57.048Z,79.04
2023-05-05T05:34:01.116Z,79.01
2023-05-05T05:35:05.880Z,79.07
2023-05-05T05:36:11.147Z,79.02
2023-05-05T05:37:14.073Z,79.42
2023-05-05T05:38:18.125Z,79.13
2023-05-05T05:39:22.890Z,79.21
2023-05-05T05:40:27.125Z,80.29
2023-05-05T05:41:31.900Z,81.39
2023-05-05T05:42:35.837Z,81.66
2023-05-05T05:43:40.077Z,82.28
2023-05-05T05:44:44.508Z,82.54
2023-05-05T05:45:48.348Z,82.08
2023-05-05T05:46:52.247Z,81.89
2023-05-05T05:47:56.187Z,80.96
2023-05-05T05:48:59.961Z,81.32
2023-05-05T05:50:05.951Z,80.59
2023-05-05T05:51:10.476Z,80.27
2023-05-05T05:52:14.298Z,80.45
2023-05-05T05:53:18.564Z,80.48
2023-05-05T05:54:22.152Z,80.39
2023-05-05T05:55:25.258Z,80.74
2023-05-05T05:56:29.705Z,79.82
2023-05-05T05:57:33.893Z,79.79
2023-05-05T05:58:38.491Z,79.31
2023-05-05T05:59:41.748Z,79.96
2023-05-05T06:00:45.709Z,80.92
2023-05-05T06:01:49.381Z,81.07
2023-05-05T06:02:53.515Z,80.59
2023-05-05T06:04:00.580Z,80.04
2023-05-05T06:05:04.122Z,79.71
2023-05-05T06:06:08.613Z,79.40
2023-05-05T06:07:12.030Z,79.01
2023-05-05T06:08:15.417Z,78.98
2023-05-05T06:09:23.633Z,78.89
2023-05-05T06:10:28.608Z,78.53
2023-05-05T06:11:40.012Z,77.94
2023-05-05T06:12:43.731Z,77.83
2023-05-05T06:13:47.049Z,77.86
2023-05-05T06:14:50.393Z,77.61
2023-05-05T06:15:53.827Z,77.46
2023-05-05T06:16:57.262Z,77.64
2023-05-05T06:18:03.110Z,77.51
2023-05-05T06:19:11.510Z,77.81
2023-05-05T06:20:15.087Z,78.49
2023-05-05T06:21:21.157Z,78.24
2023-05-05T06:22:24.626Z,78.17
2023-05-05T06:23:28.491Z,77.89
2023-05-05T06:24:36.993Z,77.33
2023-05-05T06:25:40.282Z,77.04
2023-05-05T06:26:43.509Z,77.66
2023-05-05T06:27:47.044Z,77.52
2023-05-05T06:28:49.989Z,77.12
2023-05-05T06:29:53.645Z,77.32
2023-05-05T06:30:57.524Z,77.00
2023-05-05T06:32:01.957Z,76.77
2023-05-05T06:33:05.525Z,76.44
2023-05-05T06:34:09.636Z,75.47
2023-05-05T06:35:12.929Z,75.32
2023-05-05T06:36:17.457Z,74.72
2023-05-05T06:37:21.478Z,73.45
2023-05-05T06:38:25.346Z,72.10
2023-05-05T06:39:28.432Z,71.02
2023-05-05T06:40:32.759Z,69.36
2023-05-05T06:41:36.529Z,68.00
2023-05-05T06:42:40.063Z,66.16
2023-05-05T06:43:46.405Z,63.05
2023-05-05T06:44:50.532Z,60.30
2023-05-05T06:45:53.454Z,57.25
2023-05-05T06:46:57.040Z,55.13
2023-05-05T06:48:00.824Z,53.77
2023-05-05T06:49:04.409Z,51.80
2023-05-05T06:50:09.803Z,49.48
2023-05-05T06:51:13.666Z,48.37
2023-05-05T06:52:17.143Z,47.30
2023-05-05T06:53:20.929Z,46.71
2023-05-05T06:54:24.419Z,45.57
2023-05-05T06:55:27.432Z,45.51
2023-05-05T06:56:31.343Z,44.82
2023-05-05T06:57:34.523Z,43.50
2023-05-05T06:58:37.846Z,43.63
2023-05-05T06:59:41.752Z,42.79
2023-05-05T07:00:45.828Z,42.92
2023-05-05T07:01:49.661Z,42.88
2023-05-05T07:02:53.135Z,43.27
2023-05-05T07:03:57.157Z,41.77
2023-05-05T07:05:00.952Z,41.88
2023-05-05T07:06:04.495Z,40.61
2023-05-05T07:07:07.870Z,40.76
2023-05-05T07:08:11.851Z,39.75
2023-05-05T07:09:16.471Z,40.13
2023-05-05T07:10:21.596Z,39.15
2023-05-05T07:11:25.425Z,38.55
2023-05-05T07:12:34.208Z,38.52
2023-05-05T07:13:37.703Z,37.60
2023-05-05T07:14:41.466Z,37.14
2023-05-05T07:15:48.287Z,38.23
2023-05-05T07:16:51.836Z,38.76
2023-05-05T07:17:55.665Z,40.06
2023-05-05T07:19:01.441Z,39.59
2023-05-05T07:20:05.244Z,38.58
2023-05-05T07:21:08.978Z,37.82
2023-05-05T07:22:12.225Z,36.79
2023-05-05T07:23:15.576Z,36.19
2023-05-05T07:24:19.104Z,35.50
2023-05-05T07:25:22.412Z,34.97
2023-05-05T07:26:26.437Z,34.18
2023-05-05T07:27:29.696Z,34.12
2023-05-05T07:28:32.597Z,34.05
2023-05-05T07:29:36.600Z,32.80
2023-05-05T07:30:40.469Z,33.20
2023-05-05T07:31:44.023Z,32.84
2023-05-05T07:32:47.636Z,32.94
2023-05-05T07:33:50.909Z,32.21
2023-05-05T07:34:54.328Z,32.02
2023-05-05T07:35:57.775Z,31.25
2023-05-05T07:37:01.831Z,30.66
2023-05-05T07:38:05.105Z,30.53
2023-05-05T07:39:08.333Z,30.05
2023-05-05T07:40:12.700Z,29.51
2023-05-05T07:41:16.551Z,30.20
2023-05-05T07:42:21.856Z,29.73
2023-05-05T07:43:25.872Z,29.12
2023-05-05T07:44:29.743Z,28.87
2023-05-05T07:45:33.298Z,28.71
2023-05-05T07:46:37.116Z,28.03
2023-05-05T07:47:41.473Z,28.34
2023-05-05T07:48:45.268Z,27.75
2023-05-05T07:49:49.112Z,27.99
2023-05-05T07:50:53.597Z,27.85
2023-05-05T07:51:57.465Z,27.46
2023-05-05T07:53:10.625Z,27.72
2023-05-05T07:54:18.322Z,26.75
2023-05-05T07:55:21.747Z,27.09
2023-05-05T07:56:25.483Z,26.70
2023-05-05T07:57:29.505Z,25.63
2023-05-05T07:58:32.844Z,25.57
2023-05-05T07:59:37.086Z,24.96
2023-05-05T08:00:44.757Z,25.41
2023-05-05T08:01:48.232Z,25.05
2023-05-05T08:02:52.139Z,25.81
2023-05-05T08:03:56.115Z,26.04
2023-05-05T08:04:59.698Z,26.38
2023-05-05T08:06:12.671Z,26.38
2023-05-05T08:07:16.138Z,27.08
2023-05-05T08:08:20.381Z,27.65
2023-05-05T08:09:23.500Z,28.27
2023-05-05T08:10:26.946Z,28.73
2023-05-05T08:11:30.373Z,29.80
2023-05-05T08:12:34.382Z,29.99
2023-05-05T08:13:37.590Z,30.21
2023-05-05T08:14:41.628Z,29.83
2023-05-05T08:15:45.700Z,28.99
2023-05-05T08:16:48.747Z,28.54
2023-05-05T08:17:53.704Z,27.53
2023-05-05T08:18:57.085Z,27.05
2023-05-05T08:20:00.858Z,26.60
2023-05-05T08:21:08.279Z,27.10
2023-05-05T08:22:11.445Z,27.79
2023-05-05T08:23:15.036Z,28.76
2023-05-05T08:24:18.935Z,28.70
2023-05-05T08:25:22.624Z,29.06
2023-05-05T08:26:25.963Z,28.91
2023-05-05T08:27:29.349Z,28.50
2023-05-05T08:28:33.930Z,28.38
2023-05-05T08:29:36.994Z,28.87
2023-05-05T08:30:40.092Z,29.40
2023-05-05T08:31:43.411Z,30.08
2023-05-05T08:32:47.754Z,30.75
2023-05-05T08:33:50.868Z,30.50
2023-05-05T08:34:54.399Z,31.36
2023-05-05T08:35:57.409Z,31.12
2023-05-05T08:37:01.162Z,31.90
2023-05-05T08:38:04.324Z,32.37
2023-05-05T08:39:08.288Z,32.39
2023-05-05T08:40:14.656Z,33.25
2023-05-05T08:41:23.112Z,34.43
2023-05-05T08:42:37.031Z,34.93
2023-05-05T08:43:43.568Z,35.83
2023-05-05T08:44:47.074Z,36.16
2023-05-05T08:45:52.310Z,36.63
2023-05-05T08:46:55.998Z,36.90
2023-05-05T08:48:06.346Z,37.09
2023-05-05T08:49:10.399Z,36.31
2023-05-05T08:50:13.569Z,34.44
2023-05-05T08:51:20.824Z,32.37
2023-05-05T08:52:25.300Z,31.13
2023-05-05T08:53:51.603Z,30.56
2023-05-05T08:54:58.220Z,30.97
2023-05-05T08:56:02.122Z,30.00
2023-05-05T08:57:05.410Z,29.55
2023-05-05T08:58:08.797Z,28.63
2023-05-05T08:59:12.513Z,28.38
2023-05-05T09:00:17.201Z,27.39
2023-05-05T09:01:22.013Z,26.43
2023-05-05T09:02:28.933Z,25.57
2023-05-05T09:03:32.529Z,24.62
2023-05-05T09:04:35.925Z,23.21
2023-05-05T09:05:39.666Z,22.76
2023-05-05T09:06:43.084Z,23.67
2023-05-05T09:07:47.490Z,24.28
2023-05-05T09:08:50.561Z,24.36
2023-05-05T09:09:54.233Z,25.08
2023-05-05T09:10:57.886Z,24.97
2023-05-05T09:12:02.403Z,25.35
2023-05-05T09:13:06.695Z,26.28
2023-05-05T09:14:10.165Z,27.36
2023-05-05T09:15:14.512Z,28.03
2023-05-05T09:16:17.867Z,28.44
2023-05-05T09:17:26.738Z,29.68
2023-05-05T09:18:30.243Z,30.71
2023-05-05T09:19:33.901Z,32.06
2023-05-05T09:20:38.345Z,33.40
2023-05-05T09:21:48.786Z,34.30
2023-05-05T09:22:52.165Z,34.75
2023-05-05T09:24:09.297Z,35.34
2023-05-05T09:25:14.912Z,35.44
2023-05-05T09:26:18.782Z,36.16
2023-05-05T09:27:22.521Z,36.87
2023-05-05T09:28:27.059Z,36.80
2023-05-05T09:29:30.737Z,37.19
2023-05-05T09:30:34.411Z,38.32
2023-05-05T09:31:38.683Z,38.14
2023-05-05T09:32:46.364Z,38.50
2023-05-05T09:33:49.495Z,39.10
2023-05-05T09:35:10.988Z,38.93
2023-05-05T09:36:14.739Z,39.30
2023-05-05T09:37:31.602Z,37.04
2023-05-05T09:38:35.729Z,35.24
2023-05-05T09:39:39.870Z,33.22
2023-05-05T09:40:54.156Z,31.49
2023-05-05T09:41:57.851Z,29.79
2023-05-05T09:43:02.311Z,28.43
2023-05-05T09:44:05.676Z,26.81
2023-05-05T09:45:21.322Z,25.14
2023-05-05T09:46:24.581Z,25.81
2023-05-05T09:47:35.282Z,25.07
2023-05-05T09:48:38.743Z,24.91
2023-05-05T09:49:42.488Z,23.74
2023-05-05T09:50:45.950Z,22.63
2023-05-05T09:51:49.381Z,22.89
2023-05-05T09:53:02.944Z,21.81
2023-05-05T09:54:05.994Z,21.82
2023-05-05T09:55:19.135Z,23.11
2023-05-05T09:56:22.777Z,23.52
2023-05-05T09:57:27.871Z,24.21
2023-05-05T09:58:32.199Z,25.39
2023-05-05T09:59:36.220Z,26.21
2023-05-05T10:00:40.512Z,26.93
2023-05-05T10:01:44.375Z,27.71
2023-05-05T10:02:48.101Z,28.92
2023-05-05T10:03:56.230Z,29.88
2023-05-05T10:05:13.314Z,30.63
2023-05-05T10:06:16.136Z,30.95
2023-05-05T10:07:28.051Z,30.76
2023-05-05T10:08:34.677Z,31.22
2023-05-05T10:09:38.424Z,30.94
2023-05-05T10:10:50.023Z,30.06
2023-05-05T10:11:54.155Z,29.86
2023-05-05T10:12:59.463Z,28.67
2023-05-05T10:14:04.018Z,26.92
2023-05-05T10:15:08.441Z,25.62
2023-05-05T10:16:11.974Z,24.79
2023-05-05T10:17:15.853Z,23.67
2023-05-05T10:18:26.989Z,23.60
2023-05-05T10:19:30.462Z,22.92
2023-05-05T10:20:34.421Z,22.16
2023-05-05T10:21:41.478Z,21.85
2023-05-05T10:22:52.815Z,21.47
2023-05-05T10:23:59.422Z,21.52
2023-05-05T10:25:16.976Z,20.37
2023-05-05T10:26:21.165Z,20.71
2023-05-05T10:27:25.372Z,21.18
2023-05-05T10:28:35.080Z,20.73
2023-05-05T10:30:03.482Z,21.22
2023-05-05T10:31:16.448Z,21.71
2023-05-05T10:33:45.985Z,22.06
2023-05-05T10:34:55.094Z,22.38
2023-05-05T10:35:58.859Z,22.30
2023-05-05T10:37:02.151Z,22.62
2023-05-05T10:38:05.300Z,23.18
2023-05-05T10:39:10.272Z,23.63
2023-05-05T10:40:14.405Z,24.44
2023-05-05T10:41:18.058Z,24.21
2023-05-05T10:42:21.667Z,24.65
2023-05-05T10:43:25.121Z,24.23
2023-05-05T10:44:31.841Z,23.57
2023-05-05T10:45:35.089Z,24.05
2023-05-05T10:46:38.777Z,23.94
2023-05-05T10:47:42.192Z,24.19
2023-05-05T10:48:53.001Z,23.55
2023-05-05T10:50:22.913Z,23.43
2023-05-05T10:51:41.000Z,22.39
2023-05-05T10:53:19.650Z,22.53
2023-05-05T10:54:30.445Z,22.36
2023-05-05T10:55:43.443Z,22.36
2023-05-05T10:56:50.722Z,21.97
2023-05-05T10:57:54.797Z,21.72
2023-05-05T10:59:00.530Z,21.58
2023-05-05T11:00:05.369Z,21.65
2023-05-05T11:01:09.714Z,21.48
2023-05-05T11:02:22.852Z,20.83
2023-05-05T11:03:26.947Z,21.29
2023-05-05T11:04:31.020Z,21.31
2023-05-05T11:05:34.121Z,21.09
2023-05-05T11:06:37.803Z,21.09
2023-05-05T11:07:40.766Z,20.84
2023-05-05T11:08:45.145Z,20.26
2023-05-05T11:10:15.193Z,20.74
2023-05-05T11:11:18.725Z,20.69
2023-05-05T11:12:21.993Z,20.09
2023-05-05T11:13:25.593Z,19.83
2023-05-05T11:14:28.414Z,19.91
2023-05-05T11:15:31.940Z,19.87
2023-05-05T11:16:46.436Z,19.88
2023-05-05T11:17:49.845Z,19.88
2023-05-05T11:18:53.640Z,19.78
2023-05-05T11:19:57.118Z,19.92
2023-05-05T11:21:00.476Z,20.72
2023-05-05T11:22:03.815Z,20.81
2023-05-05T11:23:07.254Z,21.58
2023-05-05T11:24:29.747Z,22.25
2023-05-05T11:25:54.129Z,22.68
2023-05-05T11:26:58.498Z,22.30
2023-05-05T11:28:09.113Z,22.00
2023-05-05T11:29:12.216Z,22.42
2023-05-05T11:30:15.990Z,22.68
2023-05-05T11:31:20.133Z,21.82
2023-05-05T11:32:23.516Z,22.17
2023-05-05T11:33:30.304Z,21.95
2023-05-05T11:34:33.826Z,22.04
2023-05-05T11:35:59.597Z,21.83
2023-05-05T11:37:04.139Z,21.79
2023-05-05T11:38:07.471Z,22.42
2023-05-05T11:39:49.684Z,22.29
2023-05-05T11:40:56.125Z,23.33
2023-05-05T11:42:11.497Z,22.90
2023-05-05T11:43:16.108Z,22.23
2023-05-05T11:44:21.446Z,22.53
2023-05-05T11:45:25.799Z,22.02
2023-05-05T11:46:29.348Z,22.05
2023-05-05T11:47:33.531Z,21.97
2023-05-05T11:48:46.645Z,22.63
2023-05-05T11:49:50.059Z,23.12
2023-05-05T11:50:53.923Z,23.46
2023-05-05T11:52:04.200Z,23.80
2023-05-05T11:53:07.991Z,23.73
2023-05-05T11:54:12.075Z,24.51
2023-05-05T11:55:20.375Z,24.04
2023-05-05T11:56:24.257Z,24.79
2023-05-05T11:57:30.914Z,25.18
2023-05-05T11:58:33.977Z,26.05
2023-05-05T11:59:38.103Z,26.26
2023-05-05T12:00:42.013Z,25.91
2023-05-05T12:01:45.444Z,25.89
2023-05-05T12:02:56.027Z,26.03
2023-05-05T12:03:59.736Z,26.03
2023-05-05T12:05:03.630Z,25.97
2023-05-05T12:06:07.962Z,26.78
2023-05-05T12:07:19.338Z,26.99
2023-05-05T12:08:22.911Z,26.70
2023-05-05T12:09:26.144Z,26.57
2023-05-05T12:10:30.278Z,26.54
2023-05-05T12:11:33.663Z,26.41
2023-05-05T12:12:41.206Z,26.53
2023-05-05T12:13:44.804Z,26.78
2023-05-05T12:14:55.020Z,26.93
2023-05-05T12:16:09.481Z,26.42
2023-05-05T12:17:12.883Z,26.27
2023-05-05T12:18:20.111Z,26.74
2023-05-05T12:19:23.806Z,26.86
2023-05-05T12:20:34.141Z,26.98
2023-05-05T12:21:37.185Z,27.12
2023-05-05T12:22:40.307Z,27.73
2023-05-05T12:23:44.250Z,27.90
2023-05-05T12:24:56.309Z,28.15
2023-05-05T12:25:59.312Z,27.91
2023-05-05T12:27:09.328Z,28.36
2023-05-05T12:28:13.208Z,28.63
2023-05-05T12:29:25.649Z,28.61
2023-05-05T12:30:29.228Z,28.95
2023-05-05T12:31:38.903Z,28.89
2023-05-05T12:32:42.402Z,28.68
2023-05-05T12:33:45.646Z,28.53
2023-05-05T12:34:49.839Z,29.33
2023-05-05T12:35:53.438Z,29.08
2023-05-05T12:36:57.171Z,28.99
2023-05-05T12:38:00.858Z,28.36
2023-05-05T12:39:08.171Z,28.47
2023-05-05T12:40:48.828Z,29.32
2023-05-05T12:41:52.684Z,29.90
2023-05-05T12:42:56.555Z,30.04
2023-05-05T12:44:00.510Z,30.13
2023-05-05T12:45:03.957Z,30.03
2023-05-05T12:46:14.107Z,30.25
2023-05-05T12:47:32.324Z,30.92
2023-05-05T12:48:39.944Z,30.42
2023-05-05T12:49:52.912Z,30.75
2023-05-05T12:50:56.530Z,30.59
2023-05-05T12:52:00.911Z,31.01
2023-05-05T12:53:04.241Z,31.05
2023-05-05T12:54:11.565Z,31.61
2023-05-05T12:55:15.281Z,31.88
2023-05-05T12:56:35.021Z,31.03
2023-05-05T12:57:38.811Z,32.34
2023-05-05T12:58:51.893Z,32.85
2023-05-05T12:59:55.636Z,32.83
2023-05-05T13:01:11.987Z,31.84
2023-05-05T13:02:16.191Z,32.00
2023-05-05T13:03:20.690Z,33.51
2023-05-05T13:04:27.938Z,33.01
2023-05-05T13:05:37.190Z,32.68
2023-05-05T13:06:44.460Z,32.37
2023-05-05T13:07:53.861Z,31.64
2023-05-05T13:08:58.119Z,31.62
2023-05-05T13:10:09.991Z,32.11
2023-05-05T13:11:13.493Z,32.01
2023-05-05T13:12:18.453Z,32.13
2023-05-05T13:13:21.827Z,32.54
2023-05-05T13:14:25.149Z,32.48
2023-05-05T13:15:28.730Z,33.10
2023-05-05T13:16:32.279Z,32.79
2023-05-05T13:17:36.082Z,33.44
2023-05-05T13:18:48.994Z,33.63
2023-05-05T13:19:52.706Z,33.15
2023-05-05T13:20:56.313Z,33.01
2023-05-05T13:21:59.629Z,33.60
2023-05-05T13:23:02.671Z,32.71
2023-05-05T13:24:21.366Z,30.88
2023-05-05T13:25:29.731Z,31.96
2023-05-05T13:26:33.424Z,32.58
2023-05-05T13:27:38.652Z,32.53
2023-05-05T13:28:42.505Z,32.84
2023-05-05T13:29:46.045Z,33.09
2023-05-05T13:30:49.385Z,32.81
2023-05-05T13:31:52.653Z,32.68
2023-05-05T13:32:56.139Z,32.42
2023-05-05T13:33:59.284Z,33.16
2023-05-05T13:35:02.541Z,32.38
2023-05-05T13:36:06.755Z,31.56
2023-05-05T13:37:10.348Z,31.75
2023-05-05T13:38:14.014Z,32.08
2023-05-05T13:39:17.154Z,32.20
2023-05-05T13:40:20.578Z,32.73
2023-05-05T13:41:23.937Z,33.18
2023-05-05T13:42:27.771Z,32.58
2023-05-05T13:43:31.534Z,32.30
2023-05-05T13:44:35.810Z,32.28
2023-05-05T13:45:41.676Z,32.40
2023-05-05T13:46:45.837Z,33.48
2023-05-05T13:47:49.613Z,32.91
2023-05-05T13:48:56.648Z,31.94
2023-05-05T13:50:00.132Z,32.73
2023-05-05T13:51:03.595Z,33.34
2023-05-05T13:52:06.962Z,33.08
2023-05-05T13:53:10.409Z,33.36
2023-05-05T13:54:14.126Z,33.97
2023-05-05T13:55:17.327Z,34.85
2023-05-05T13:56:20.305Z,34.17
2023-05-05T13:57:23.823Z,34.03
2023-05-05T13:58:30.246Z,33.70
2023-05-05T13:59:33.885Z,33.98
2023-05-05T14:00:37.580Z,33.92
2023-05-05T14:01:41.542Z,33.34
2023-05-05T14:02:45.216Z,33.15
2023-05-05T14:03:49.360Z,33.96
2023-05-05T14:04:53.212Z,33.68
2023-05-05T14:05:56.817Z,32.40
2023-05-05T14:07:00.299Z,33.87
2023-05-05T14:08:03.612Z,34.39
2023-05-05T14:09:08.798Z,34.04
2023-05-05T14:10:12.700Z,35.28
2023-05-05T14:11:18.218Z,35.28
2023-05-05T14:12:22.008Z,35.42